Time;durP1;ratioP1;P1;durP2;ratioP2;P2;SDS_P1;SDS_P2;PMS_P1;PMS_P2;Temp;Humidity;BMP_temperature;BMP_pressure;BME280_temperature;BME280_humidity;BME280_pressure;Samples;Min_cycle;Max_cycle;Signal;HPM_P1;HPM_P2
2022/08/10 00:01:19;;;;;;;7.00;4.90;;;;;;;13.68;71.56;101255.79;129120;1268;1659784;-83
2022/08/10 00:04:25;;;;;;;7.40;5.30;;;;;;;13.68;71.71;101252.06;130314;1268;107694;-81
2022/08/10 00:07:30;;;;;;;7.70;5.70;;;;;;;13.70;71.99;101248.13;130325;1268;108613;-80
2022/08/10 00:10:36;;;;;;;6.40;4.90;;;;;;;13.70;71.83;101252.21;130272;1268;108821;-80
2022/08/10 00:13:41;;;;;;;7.70;5.50;;;;;;;13.67;71.76;101253.23;130306;1268;107753;-81
2022/08/10 00:16:47;;;;;;;7.30;5.10;;;;;;;13.62;71.90;101253.92;130281;1268;108944;-80
2022/08/10 00:19:52;;;;;;;5.10;4.10;;;;;;;13.61;72.11;101248.65;130322;1268;108133;-80
2022/08/10 00:22:58;;;;;;;5.40;4.70;;;;;;;13.61;71.91;101249.69;130076;1268;108792;-81
2022/08/10 00:26:04;;;;;;;5.80;4.60;;;;;;;13.58;72.02;101249.99;130243;1268;109134;-80
2022/08/10 00:29:10;;;;;;;8.30;5.20;;;;;;;13.60;72.08;101248.31;130357;1268;108637;-80
2022/08/10 00:32:16;;;;;;;7.80;5.60;;;;;;;13.58;72.29;101242.65;130330;1268;108854;-80
2022/08/10 00:35:21;;;;;;;10.80;5.70;;;;;;;13.59;72.23;101246.14;130259;1268;109319;-78
2022/08/10 00:38:26;;;;;;;5.70;4.40;;;;;;;13.57;72.20;101245.09;130195;1268;108597;-79
2022/08/10 00:41:32;;;;;;;5.90;4.50;;;;;;;13.52;72.31;101247.31;130164;1268;109763;-79
2022/08/10 00:44:40;;;;;;;5.40;4.70;;;;;;;13.49;72.25;101247.29;130273;1268;108779;-78
2022/08/10 00:47:45;;;;;;;5.70;4.40;;;;;;;13.47;72.34;101248.52;130240;1268;108885;-78
2022/08/10 00:50:51;;;;;;;6.90;5.50;;;;;;;13.49;72.36;101252.25;130188;1268;108758;-79
2022/08/10 00:53:56;;;;;;;6.20;5.20;;;;;;;13.50;72.38;101249.48;130236;1268;108847;-78
2022/08/10 00:57:02;;;;;;;6.10;5.00;;;;;;;13.48;72.39;101245.54;130244;1268;108725;-79
2022/08/10 01:00:10;;;;;;;7.00;4.90;;;;;;;13.42;72.28;101245.42;130289;1268;108888;-79
2022/08/10 01:03:16;;;;;;;5.70;4.70;;;;;;;13.33;72.58;101243.12;130205;1268;109206;-80
2022/08/10 01:06:29;;;;;;;6.60;5.10;;;;;;;13.20;72.69;101245.88;130182;1268;108663;-80
2022/08/10 01:09:46;;;;;;;6.60;5.30;;;;;;;13.13;72.86;101250.26;130235;1269;108332;-76
2022/08/10 01:12:57;;;;;;;6.40;5.80;;;;;;;13.13;72.84;101251.16;130208;1271;108602;-76
2022/08/10 01:16:13;;;;;;;6.80;5.50;;;;;;;13.19;72.77;101249.23;130066;1271;108894;-76
2022/08/10 01:19:30;;;;;;;6.60;5.80;;;;;;;13.20;72.64;101243.17;129984;1271;108850;-76
2022/08/10 01:23:02;;;;;;;6.60;5.60;;;;;;;13.15;72.72;101242.77;129969;1271;108854;-78
2022/08/10 01:26:34;;;;;;;5.50;4.50;;;;;;;13.10;72.82;101242.30;130162;1270;108875;-79
2022/08/10 01:29:55;;;;;;;;;;;;;;;13.09;72.77;101236.98;130044;1270;108748;-78
2022/08/10 01:33:04;;;;;;;5.70;4.80;;;;;;;12.99;72.83;101226.80;130038;1271;108741;-77
2022/08/10 01:36:14;;;;;;;7.50;5.40;;;;;;;13.03;72.90;101234.27;129963;1271;108836;-77
2022/08/10 01:39:25;;;;;;;9.40;5.50;;;;;;;13.04;72.92;101231.86;130041;1270;108072;-77
2022/08/10 01:42:34;;;;;;;6.40;5.70;;;;;;;13.01;72.83;101232.16;130059;1271;109734;-77
2022/08/10 01:45:45;;;;;;;8.30;5.90;;;;;;;12.93;72.79;101227.47;130205;1271;107257;-77
2022/08/10 01:48:54;;;;;;;7.10;5.80;;;;;;;12.82;72.90;101237.46;130145;1271;108729;-77
2022/08/10 01:52:02;;;;;;;5.80;5.10;;;;;;;12.74;73.19;101239.98;130126;1271;108665;-80
2022/08/10 01:55:10;;;;;;;5.90;4.60;;;;;;;12.74;73.16;101237.16;130036;1271;108594;-79
2022/08/10 01:58:17;;;;;;;6.50;4.70;;;;;;;12.73;73.03;101237.09;130082;1271;108890;-80
2022/08/10 02:01:25;;;;;;;6.20;4.70;;;;;;;12.66;73.08;101242.23;130085;1271;108887;-80
2022/08/10 02:04:34;;;;;;;6.40;5.20;;;;;;;12.60;73.09;101245.44;130077;1271;108112;-78
2022/08/10 02:07:42;;;;;;;5.70;5.00;;;;;;;12.47;73.02;101250.33;130090;1271;109004;-78
2022/08/10 02:10:50;;;;;;;5.80;5.20;;;;;;;12.41;73.26;101244.89;130176;1271;108896;-79
2022/08/10 02:13:58;;;;;;;7.60;5.80;;;;;;;12.43;73.31;101242.66;130211;1271;109021;-78
2022/08/10 02:17:07;;;;;;;7.30;5.80;;;;;;;12.37;73.44;101245.25;129963;1271;108711;-79
2022/08/10 02:20:17;;;;;;;5.90;5.20;;;;;;;12.22;73.42;101251.91;130001;1271;108623;-79
2022/08/10 02:23:27;;;;;;;6.70;4.60;;;;;;;12.14;73.81;101249.60;130028;1270;108758;-79
2022/08/10 02:26:33;;;;;;;5.50;4.80;;;;;;;12.18;73.73;101253.15;130157;1270;108606;-80
2022/08/10 02:29:41;;;;;;;7.10;5.60;;;;;;;12.15;73.73;101256.45;130174;1271;109028;-80
2022/08/10 02:32:47;;;;;;;7.60;5.50;;;;;;;12.23;73.57;101260.26;130046;1271;109029;-79
2022/08/10 02:35:53;;;;;;;6.60;5.60;;;;;;;12.27;73.68;101261.70;130169;1270;108935;-79
2022/08/10 02:39:01;;;;;;;9.80;6.20;;;;;;;12.26;73.48;101261.19;130136;1270;106845;-80
2022/08/10 02:42:13;;;;;;;7.00;5.60;;;;;;;12.26;73.75;101262.45;130254;1270;108775;-79
2022/08/10 02:45:22;;;;;;;6.30;5.10;;;;;;;12.28;73.72;101262.65;130126;1271;108722;-78
2022/08/10 02:48:37;;;;;;;7.40;5.60;;;;;;;12.28;73.87;101265.65;130143;1270;109341;-80
2022/08/10 02:51:49;;;;;;;8.60;6.20;;;;;;;12.27;73.85;101266.81;130059;1270;108781;-79
2022/08/10 02:55:00;;;;;;;8.00;5.80;;;;;;;12.26;73.80;101267.48;129967;1270;108823;-79
2022/08/10 02:58:10;;;;;;;8.50;5.90;;;;;;;12.23;73.90;101270.40;130227;1269;108766;-79
2022/08/10 03:01:20;;;;;;;7.90;6.20;;;;;;;12.21;74.06;101269.55;130104;1270;108877;-80
2022/08/10 03:04:29;;;;;;;8.30;6.10;;;;;;;12.18;73.91;101268.48;130174;1270;108217;-79
2022/08/10 03:07:41;;;;;;;6.40;5.40;;;;;;;12.15;73.74;101267.17;130145;1269;108730;-78
2022/08/10 03:10:48;;;;;;;7.20;5.50;;;;;;;12.18;75.21;101261.52;130085;1271;108874;-77
2022/08/10 03:13:55;;;;;;;7.70;5.80;;;;;;;12.28;74.13;101264.96;130105;1270;110047;-78
2022/08/10 03:17:01;;;;;;;7.10;5.70;;;;;;;12.24;73.56;101261.23;129989;1270;108647;-78
2022/08/10 03:20:09;;;;;;;7.00;5.80;;;;;;;12.25;74.18;101262.86;130104;1270;108742;-79
2022/08/10 03:23:17;;;;;;;9.60;6.70;;;;;;;12.25;73.86;101261.10;130032;1269;109131;-79
2022/08/10 03:26:24;;;;;;;7.70;6.50;;;;;;;12.23;73.93;101263.84;129945;1270;108716;-79
2022/08/10 03:29:31;;;;;;;7.00;6.20;;;;;;;12.22;73.98;101267.48;129969;1270;108596;-79
2022/08/10 03:32:37;;;;;;;7.80;5.20;;;;;;;12.20;74.02;101266.90;129996;1270;108665;-79
2022/08/10 03:35:42;;;;;;;7.20;5.60;;;;;;;12.16;74.18;101263.13;129965;1270;108908;-79
2022/08/10 03:38:51;;;;;;;8.20;5.80;;;;;;;12.10;74.25;101266.04;130214;1270;108723;-79
2022/08/10 03:42:00;;;;;;;7.10;5.70;;;;;;;12.12;74.46;101267.11;130194;1270;109252;-78
2022/08/10 03:45:09;;;;;;;7.80;6.10;;;;;;;12.19;74.25;101266.81;130155;1269;108348;-78
2022/08/10 03:48:17;;;;;;;6.00;5.20;;;;;;;12.27;74.37;101262.94;130168;1270;108573;-78
2022/08/10 03:51:25;;;;;;;6.90;6.00;;;;;;;12.30;74.07;101267.29;130253;1270;107946;-80
2022/08/10 03:54:30;;;;;;;7.90;6.00;;;;;;;12.29;74.33;101268.10;130350;1270;109225;-80
2022/08/10 03:57:36;;;;;;;9.60;5.20;;;;;;;12.34;74.50;101268.69;130276;1269;108763;-80
2022/08/10 04:00:43;;;;;;;6.10;5.10;;;;;;;12.49;74.32;101271.23;129978;1270;108756;-80
2022/08/10 04:03:49;;;;;;;5.90;5.30;;;;;;;12.63;74.43;101274.81;130244;1269;107334;-81
2022/08/10 04:06:56;;;;;;;6.50;5.70;;;;;;;12.82;74.50;101274.64;130170;1270;107092;-80
2022/08/10 04:10:02;;;;;;;6.90;5.40;;;;;;;13.05;74.48;101278.03;130002;1270;108747;-77
2022/08/10 04:13:07;;;;;;;7.00;5.50;;;;;;;13.20;74.41;101280.40;130157;1270;108948;-77
2022/08/10 04:16:12;;;;;;;6.60;5.60;;;;;;;13.32;74.30;101286.80;130193;1270;108822;-77
2022/08/10 04:19:19;;;;;;;5.20;4.50;;;;;;;13.45;74.34;101284.24;130152;1270;107810;-80
2022/08/10 04:22:28;;;;;;;5.60;4.90;;;;;;;13.62;74.50;101281.95;130196;1270;108713;-78
2022/08/10 04:25:34;;;;;;;5.30;4.80;;;;;;;13.84;74.48;101287.69;130155;1270;108579;-78
2022/08/10 04:28:41;;;;;;;6.60;5.20;;;;;;;14.05;74.55;101289.89;130096;1270;108751;-78
2022/08/10 04:31:48;;;;;;;5.60;4.90;;;;;;;14.32;74.52;101289.60;130006;1270;108509;-78
2022/08/10 04:34:57;;;;;;;6.20;5.00;;;;;;;14.64;75.49;101290.54;129969;1270;108605;-78
2022/08/10 04:38:04;;;;;;;6.40;3.90;;;;;;;15.00;74.72;101289.09;129992;1270;108408;-78
2022/08/10 04:41:10;;;;;;;6.90;4.50;;;;;;;15.33;75.22;101290.31;130004;1270;109015;-78
2022/08/10 04:44:16;;;;;;;5.40;4.30;;;;;;;15.67;74.60;101295.99;130040;1270;108790;-79
2022/08/10 04:47:21;;;;;;;6.90;4.50;;;;;;;16.01;74.87;101294.48;129991;1270;108136;-78
2022/08/10 04:50:27;;;;;;;6.40;5.70;;;;;;;16.40;75.02;101291.27;130197;1270;108848;-80
2022/08/10 04:53:33;;;;;;;5.10;4.60;;;;;;;16.73;74.61;101290.29;130166;1270;108936;-79
2022/08/10 04:56:40;;;;;;;4.30;3.90;;;;;;;17.00;74.76;101295.06;130215;1270;108756;-77
2022/08/10 04:59:45;;;;;;;7.00;5.70;;;;;;;17.25;75.05;101294.75;130262;1270;107628;-80
2022/08/10 05:02:50;;;;;;;6.00;4.60;;;;;;;17.51;74.72;101293.89;130252;1270;108664;-79
2022/08/10 05:05:56;;;;;;;6.90;6.20;;;;;;;17.75;74.62;101298.16;130035;1269;108691;-81
2022/08/10 05:09:01;;;;;;;7.50;5.90;;;;;;;17.96;74.16;101295.42;130291;1270;109038;-81
2022/08/10 05:12:08;;;;;;;5.10;4.30;;;;;;;18.15;74.06;101298.34;130057;1270;108638;-81
2022/08/10 05:15:16;;;;;;;7.30;6.30;;;;;;;18.32;74.07;101297.92;130390;1270;107658;-81
2022/08/10 05:18:22;;;;;;;11.00;6.30;;;;;;;18.39;73.58;101302.38;130315;1270;108945;-81
2022/08/10 05:21:27;;;;;;;5.50;4.10;;;;;;;18.41;73.86;101306.79;130147;1270;108663;-79
2022/08/10 05:24:33;;;;;;;7.60;6.20;;;;;;;18.49;73.64;101307.75;129989;1270;109038;-80
2022/08/10 05:27:39;;;;;;;6.80;5.60;;;;;;;18.53;73.72;101306.80;130061;1270;108726;-81
2022/08/10 05:30:45;;;;;;;7.30;5.60;;;;;;;18.56;73.54;101312.13;130128;1270;109798;-79
2022/08/10 05:33:50;;;;;;;7.30;5.80;;;;;;;18.53;73.33;101311.41;130122;1270;108740;-80
2022/08/10 05:36:57;;;;;;;7.00;5.90;;;;;;;18.45;73.83;101312.88;130117;1270;108747;-80
2022/08/10 05:40:05;;;;;;;8.30;6.20;;;;;;;18.50;73.33;101311.77;130268;1270;108516;-80
2022/08/10 05:43:10;;;;;;;6.50;5.10;;;;;;;18.33;73.70;101309.20;130123;1270;108775;-80
2022/08/10 05:46:16;;;;;;;6.40;4.80;;;;;;;18.35;73.97;101314.23;130168;1270;108916;-80
2022/08/10 05:49:21;;;;;;;5.40;3.90;;;;;;;18.34;73.76;101311.84;130217;1270;108780;-80
2022/08/10 05:52:28;;;;;;;7.00;5.30;;;;;;;18.39;73.89;101309.58;130283;1270;109061;-80
2022/08/10 05:55:34;;;;;;;7.00;4.70;;;;;;;18.44;73.90;101311.70;130201;1270;107026;-80
2022/08/10 05:58:40;;;;;;;6.10;4.90;;;;;;;18.53;73.79;101314.20;130035;1270;108790;-80
2022/08/10 06:01:48;;;;;;;5.80;5.00;;;;;;;18.57;73.70;101319.43;130266;1270;108729;-80
2022/08/10 06:04:55;;;;;;;4.70;3.60;;;;;;;18.56;73.82;101320.92;130117;1270;108347;-79
2022/08/10 06:08:03;;;;;;;5.90;4.30;;;;;;;18.59;73.90;101316.14;130032;1270;108478;-80
2022/08/10 06:11:11;;;;;;;6.20;4.30;;;;;;;18.66;73.64;101313.52;130220;1270;108722;-79
2022/08/10 06:17:44;;;;;;;6.00;5.10;;;;;;;18.66;73.75;101318.92;130153;1270;108788;-80
2022/08/10 06:20:52;;;;;;;7.10;4.80;;;;;;;18.79;73.68;101321.30;130194;1268;109732;-79
2022/08/10 06:24:01;;;;;;;6.80;5.50;;;;;;;18.86;73.53;101319.52;130133;1268;108859;-81
2022/08/10 06:27:07;;;;;;;7.20;5.20;;;;;;;18.78;73.35;101317.82;130175;1268;108611;-80
2022/08/10 06:30:14;;;;;;;4.90;3.90;;;;;;;18.71;73.62;101315.41;130427;1268;108831;-81
2022/08/10 06:33:22;;;;;;;11.50;7.70;;;;;;;18.72;73.52;101318.85;130475;1268;108967;-81
2022/08/10 06:36:29;;;;;;;8.70;5.30;;;;;;;18.77;73.56;101312.22;130351;1268;108878;-80
2022/08/10 06:39:35;;;;;;;7.80;4.80;;;;;;;18.93;73.44;101319.34;130398;1268;108870;-77
2022/08/10 06:42:46;;;;;;;12.70;7.00;;;;;;;19.08;73.38;101316.89;130295;1270;108664;-80
2022/08/10 06:45:55;;;;;;;8.80;4.60;;;;;;;19.22;73.23;101317.16;130227;1270;109690;-78
2022/08/10 06:49:04;;;;;;;10.90;6.80;;;;;;;19.28;73.03;101313.34;130200;1270;108675;-80
2022/08/10 06:52:14;;;;;;;11.00;6.80;;;;;;;19.38;73.26;101313.36;130221;1270;106287;-80
2022/08/10 06:55:23;;;;;;;16.20;6.60;;;;;;;19.47;73.20;101315.37;130179;1270;108978;-82
2022/08/10 06:58:35;;;;;;;10.00;4.50;;;;;;;19.54;73.15;101313.60;130218;1270;108843;-77
2022/08/10 07:01:45;;;;;;;5.10;2.90;;;;;;;19.59;72.78;101314.66;130248;1267;107787;-82
2022/08/10 07:04:56;;;;;;;3.10;2.80;;;;;;;19.58;72.19;101314.78;130386;1268;109142;-81
2022/08/10 07:08:03;;;;;;;5.40;3.00;;;;;;;19.56;71.95;101313.42;130191;1270;108699;-79
2022/08/10 07:11:09;;;;;;;3.80;2.80;;;;;;;19.53;71.69;101315.07;130267;1268;107745;-78
2022/08/10 07:14:17;;;;;;;4.00;2.50;;;;;;;19.48;71.34;101316.96;130245;1269;108761;-79
2022/08/10 07:17:25;;;;;;;4.10;2.90;;;;;;;19.50;72.07;101317.03;130272;1268;108873;-81
2022/08/10 07:20:33;;;;;;;7.20;3.70;;;;;;;19.59;71.93;101317.02;130205;1268;108323;-84
2022/08/10 07:23:39;;;;;;;5.00;2.40;;;;;;;19.69;71.50;101312.96;130253;1268;108918;-80
2022/08/10 07:26:50;;;;;;;4.20;2.80;;;;;;;19.75;71.43;101314.20;130166;1270;106917;-78
2022/08/10 07:29:56;;;;;;;5.90;2.80;;;;;;;19.83;71.40;101315.93;130152;1270;108919;-82
2022/08/10 07:33:05;;;;;;;4.00;2.40;;;;;;;19.90;71.32;101316.67;130387;1270;107417;-82
2022/08/10 07:36:12;;;;;;;2.60;2.30;;;;;;;19.93;70.75;101316.39;130333;1269;108843;-79
2022/08/10 07:39:19;;;;;;;3.30;2.60;;;;;;;19.87;69.94;101318.49;130338;1270;108682;-81
2022/08/10 07:42:29;;;;;;;5.10;2.40;;;;;;;19.87;70.75;101314.71;130387;1268;107712;-79
2022/08/10 07:45:37;;;;;;;4.20;2.50;;;;;;;19.94;70.54;101312.38;130388;1268;108871;-79
2022/08/10 07:48:47;;;;;;;2.30;2.10;;;;;;;20.00;70.30;101308.74;130382;1270;107513;-86
2022/08/10 07:51:56;;;;;;;3.40;2.20;;;;;;;20.06;70.21;101308.28;130471;1270;108694;-84
2022/08/10 07:55:03;;;;;;;3.90;1.90;;;;;;;20.10;70.12;101311.20;130580;1268;108762;-85
2022/08/10 07:58:11;;;;;;;2.70;1.70;;;;;;;20.14;69.51;101313.58;130563;1268;108658;-87
2022/08/10 08:01:17;;;;;;;3.50;2.20;;;;;;;20.21;69.84;101313.48;130590;1270;108650;-85
2022/08/10 08:04:24;;;;;;;2.70;1.90;;;;;;;20.30;70.04;101318.77;130536;1270;108611;-82
2022/08/10 08:07:32;;;;;;;3.40;2.10;;;;;;;20.41;69.45;101321.39;130541;1270;108774;-81
2022/08/10 08:10:39;;;;;;;3.90;2.20;;;;;;;20.45;68.74;101317.64;130572;1270;108882;-80
2022/08/10 08:13:46;;;;;;;2.10;1.90;;;;;;;20.58;68.92;101323.25;130310;1270;108907;-83
2022/08/10 08:16:55;;;;;;;3.20;2.10;;;;;;;20.75;67.57;101312.83;130397;1270;108779;-80
2022/08/10 08:20:01;;;;;;;2.90;1.70;;;;;;;20.83;66.83;101315.53;130548;1270;107014;-83
2022/08/10 08:23:07;;;;;;;2.30;2.00;;;;;;;20.72;66.69;101317.36;130486;1270;108639;-84
2022/08/10 08:26:14;;;;;;;2.50;2.10;;;;;;;20.64;67.82;101314.61;130467;1270;108872;-86
2022/08/10 08:29:21;;;;;;;3.10;2.00;;;;;;;20.56;67.03;101313.62;130447;1270;108970;-82
2022/08/10 08:32:30;;;;;;;2.00;1.70;;;;;;;20.52;67.88;101313.91;130451;1270;108769;-77
2022/08/10 08:35:35;;;;;;;4.80;2.30;;;;;;;20.69;67.05;101305.81;130315;1270;108635;-77
2022/08/10 08:38:42;;;;;;;2.50;1.90;;;;;;;20.87;67.55;101304.17;130311;1270;108864;-81
2022/08/10 08:41:58;;;;;;;6.70;2.40;;;;;;;21.15;67.29;101303.10;130572;1270;108782;-79
2022/08/10 08:45:14;;;;;;;2.00;1.80;;;;;;;21.46;66.81;101297.39;130240;1270;108647;-81
2022/08/10 08:48:34;;;;;;;5.70;1.70;;;;;;;21.69;65.51;101297.96;130582;1270;109703;-80
2022/08/10 08:51:53;;;;;;;2.60;1.80;;;;;;;21.67;64.92;101299.45;130271;1270;108672;-80
2022/08/10 08:55:12;;;;;;;2.40;1.90;;;;;;;21.64;63.83;101298.10;130050;1270;108920;-80
2022/08/10 08:58:38;;;;;;;3.20;1.90;;;;;;;21.40;62.59;101301.36;130336;1268;107254;-79
2022/08/10 09:01:58;;;;;;;2.50;1.50;;;;;;;21.24;64.75;101297.28;130266;1270;108709;-79
2022/08/10 09:05:17;;;;;;;2.80;2.10;;;;;;;21.31;64.75;101291.23;130253;1270;107343;-81
2022/08/10 09:08:35;;;;;;;3.30;1.50;;;;;;;21.63;64.71;101288.74;130476;1270;108959;-81
2022/08/10 09:11:58;;;;;;;1.90;1.60;;;;;;;21.88;63.86;101289.48;130439;1270;108852;-81
2022/08/10 09:15:08;;;;;;;1.70;1.60;;;;;;;22.02;63.70;101284.17;130312;1270;108908;-81
2022/08/10 09:18:20;;;;;;;2.10;1.40;;;;;;;21.93;63.46;101289.52;130303;1270;108952;-79
2022/08/10 09:21:35;;;;;;;1.60;1.50;;;;;;;21.67;62.26;101289.54;130221;1270;108541;-79
2022/08/10 09:24:49;;;;;;;2.40;1.40;;;;;;;21.48;61.85;101284.94;130220;1270;109025;-77
2022/08/10 09:28:07;;;;;;;1.80;1.30;;;;;;;21.49;62.34;101283.52;130396;1270;108899;-79
2022/08/10 09:31:18;;;;;;;1.80;1.10;;;;;;;21.49;60.75;101289.95;130179;1270;108742;-78
2022/08/10 09:34:31;;;;;;;2.50;1.10;;;;;;;21.53;60.31;101285.88;130272;1270;107663;-83
2022/08/10 09:37:44;;;;;;;1.10;0.90;;;;;;;21.63;60.40;101284.64;130299;1270;108756;-78
2022/08/10 09:40:54;;;;;;;2.00;1.20;;;;;;;21.69;59.69;101285.84;130206;1270;108849;-81
2022/08/10 09:44:09;;;;;;;1.40;1.30;;;;;;;21.75;58.17;101287.59;130248;1270;108725;-80
2022/08/10 09:47:26;;;;;;;3.40;1.40;;;;;;;21.86;59.75;101283.70;130447;1271;108987;-80
2022/08/10 09:50:40;;;;;;;1.40;1.20;;;;;;;22.00;57.88;101279.58;130108;1271;109764;-81
2022/08/10 09:53:56;;;;;;;1.70;1.20;;;;;;;22.04;57.56;101278.48;130026;1271;108737;-81
2022/08/10 09:57:15;;;;;;;1.40;1.10;;;;;;;22.11;59.10;101272.67;130117;1271;108846;-82
2022/08/10 10:00:25;;;;;;;1.90;1.20;;;;;;;22.21;58.03;101268.10;130063;1271;108817;-81
2022/08/10 10:03:38;;;;;;;1.80;1.20;;;;;;;22.29;57.69;101265.80;130091;1271;108566;-82
2022/08/10 10:06:51;;;;;;;1.30;0.90;;;;;;;22.34;56.78;101258.71;130026;1271;108292;-82
2022/08/10 10:10:03;;;;;;;1.80;1.10;;;;;;;22.35;55.01;101262.02;130023;1271;107733;-81
2022/08/10 10:13:09;;;;;;;;;;;;;;;22.30;54.78;101259.08;130044;1271;107619;-83
2022/08/10 10:16:27;;;;;;;2.30;1.10;;;;;;;22.34;57.01;101253.77;130024;1271;108752;-82
2022/08/10 10:19:53;;;;;;;2.60;1.00;;;;;;;22.43;56.61;101253.15;130233;1268;107321;-79
2022/08/10 10:23:07;;;;;;;1.80;1.10;;;;;;;22.44;54.01;101255.59;130465;1268;108897;-79
2022/08/10 10:26:23;;;;;;;1.30;1.00;;;;;;;22.51;54.77;101249.40;130212;1270;108101;-79
2022/08/10 10:29:41;;;;;;;0.90;0.70;;;;;;;22.61;54.60;101245.10;130193;1270;108888;-79
2022/08/10 10:32:57;;;;;;;1.60;0.70;;;;;;;22.69;54.79;101248.42;130346;1269;108801;-80
2022/08/10 10:36:04;;;;;;;1.30;0.80;;;;;;;22.77;54.59;101241.33;130177;1270;109033;-81
2022/08/10 10:39:15;;;;;;;0.80;0.80;;;;;;;22.84;53.88;101239.61;130214;1270;108612;-81
2022/08/10 10:42:30;;;;;;;1.50;1.00;;;;;;;22.87;53.75;101237.58;130147;1269;108677;-80
2022/08/10 10:45:49;;;;;;;1.00;0.90;;;;;;;22.84;52.44;101239.02;130164;1270;108508;-78
2022/08/10 10:49:03;;;;;;;0.90;0.80;;;;;;;22.80;52.87;101234.56;130173;1270;108884;-78
2022/08/10 10:52:18;;;;;;;1.70;0.90;;;;;;;22.82;52.47;101233.64;130155;1270;108277;-79
2022/08/10 10:55:30;;;;;;;1.70;0.90;;;;;;;22.88;53.71;101223.88;130214;1270;108947;-80
2022/08/10 10:58:41;;;;;;;1.40;0.80;;;;;;;22.93;52.53;101223.56;130257;1270;107821;-79
2022/08/10 11:02:00;;;;;;;0.90;0.70;;;;;;;22.80;50.12;101225.47;130101;1270;108764;-79
2022/08/10 11:05:17;;;;;;;1.90;0.90;;;;;;;22.80;51.64;101222.83;130058;1270;107744;-79
2022/08/10 11:08:26;;;;;;;2.00;0.80;;;;;;;22.92;51.75;101221.48;130150;1270;108853;-78
2022/08/10 11:11:36;;;;;;;0.90;0.80;;;;;;;23.11;52.04;101214.70;129990;1271;108747;-80
2022/08/10 11:14:50;;;;;;;0.90;0.80;;;;;;;23.31;51.07;101212.52;130146;1270;108753;-80
2022/08/10 11:18:01;;;;;;;1.90;0.90;;;;;;;23.42;50.90;101212.73;130078;1271;108799;-80
2022/08/10 11:21:16;;;;;;;2.00;0.70;;;;;;;23.44;48.82;101214.59;130119;1270;108880;-81
2022/08/10 11:24:33;;;;;;;0.70;0.70;;;;;;;23.29;47.02;101212.61;129968;1271;108802;-84
2022/08/10 11:27:49;;;;;;;1.00;0.80;;;;;;;23.28;49.61;101208.61;130127;1271;109008;-81
2022/08/10 11:31:03;;;;;;;0.80;0.70;;;;;;;23.39;50.04;101204.52;130009;1270;108903;-77
2022/08/10 11:34:16;;;;;;;0.90;0.70;;;;;;;23.51;49.54;101197.68;129920;1272;107733;-78
2022/08/10 11:37:30;;;;;;;1.00;0.60;;;;;;;23.60;48.45;101194.52;130064;1270;108761;-80
2022/08/10 11:40:43;;;;;;;1.40;0.70;;;;;;;23.57;46.95;101189.70;130174;1270;108825;-81
2022/08/10 11:43:56;;;;;;;0.70;0.70;;;;;;;23.49;48.09;101193.04;130197;1270;107670;-80
2022/08/10 11:47:09;;;;;;;2.20;0.70;;;;;;;23.45;46.90;101194.23;130260;1268;108747;-81
2022/08/10 11:50:21;;;;;;;0.80;0.80;;;;;;;23.15;47.83;101193.95;130328;1268;108797;-80
2022/08/10 11:53:34;;;;;;;1.90;0.90;;;;;;;22.87;48.45;101194.09;130317;1268;108839;-80
2022/08/10 11:56:52;;;;;;;0.90;0.80;;;;;;;22.63;49.25;101188.60;130239;1268;108625;-80
2022/08/10 11:59:58;;;;;;;0.60;0.60;;;;;;;22.56;49.28;101187.39;130321;1268;108889;-81
2022/08/10 12:03:07;;;;;;;1.00;0.60;;;;;;;22.68;49.04;101177.25;129143;1268;1553242;-82
2022/08/10 12:06:18;;;;;;;0.70;0.60;;;;;;;22.84;46.39;101176.35;130268;1268;109869;-82
2022/08/10 12:09:26;;;;;;;0.90;0.60;;;;;;;22.97;45.85;101173.57;130294;1268;106771;-82
2022/08/10 12:12:39;;;;;;;1.70;0.60;;;;;;;23.08;46.42;101170.72;130229;1268;107661;-82
2022/08/10 12:15:54;;;;;;;0.80;0.60;;;;;;;23.17;47.30;101164.04;130326;1269;109321;-82
2022/08/10 12:19:05;;;;;;;0.50;0.50;;;;;;;23.20;45.32;101170.20;130331;1268;107572;-82
2022/08/10 12:22:18;;;;;;;1.10;0.70;;;;;;;23.15;45.48;101168.33;130265;1269;108675;-82
2022/08/10 12:25:36;;;;;;;1.00;0.70;;;;;;;23.05;45.97;101168.17;130261;1268;108936;-81
2022/08/10 12:28:47;;;;;;;0.40;0.40;;;;;;;23.07;46.42;101161.97;130210;1268;109131;-83
2022/08/10 12:31:59;;;;;;;0.70;0.40;;;;;;;23.09;44.50;101162.22;130294;1268;109226;-80
2022/08/10 12:35:06;;;;;;;;;;;;;;;23.11;44.33;101157.48;130236;1268;107692;-80
2022/08/10 12:38:27;;;;;;;1.40;0.40;;;;;;;23.16;44.86;101150.77;130148;1269;108806;-79
2022/08/10 12:41:39;;;;;;;0.50;0.40;;;;;;;23.22;44.74;101147.30;130354;1268;109009;-80
2022/08/10 12:44:53;;;;;;;0.90;0.50;;;;;;;23.30;45.91;101144.85;130356;1268;109872;-79
2022/08/10 12:48:07;;;;;;;0.70;0.50;;;;;;;23.41;45.25;101140.70;130270;1268;108233;-79
2022/08/10 12:51:18;;;;;;;0.60;0.50;;;;;;;23.49;45.33;101136.60;130191;1268;109026;-80
2022/08/10 12:54:26;;;;;;;1.10;0.70;;;;;;;23.53;44.14;101136.02;130269;1268;108869;-79
2022/08/10 12:57:36;;;;;;;0.40;0.40;;;;;;;23.59;44.21;101134.37;130179;1268;108663;-81
2022/08/10 13:00:45;;;;;;;0.70;0.50;;;;;;;23.63;43.82;101129.44;130272;1269;107821;-82
2022/08/10 13:03:55;;;;;;;1.20;0.50;;;;;;;23.57;43.29;101129.13;130322;1270;108751;-80
2022/08/10 13:07:03;;;;;;;1.30;0.60;;;;;;;23.56;43.92;101119.88;130251;1269;107407;-82
2022/08/10 13:10:11;;;;;;;0.60;0.50;;;;;;;23.60;43.32;101120.19;130291;1269;107247;-80
2022/08/10 13:13:19;;;;;;;1.00;0.50;;;;;;;23.60;43.42;101115.46;130173;1270;108986;-79
2022/08/10 13:16:27;;;;;;;1.70;0.60;;;;;;;23.59;42.70;101113.41;130221;1269;109743;-80
2022/08/10 13:19:40;;;;;;;1.00;0.40;;;;;;;23.56;42.67;101120.96;130201;1270;108766;-85
2022/08/10 13:22:47;;;;;;;0.70;0.50;;;;;;;23.53;42.35;101116.20;130285;1269;108789;-80
2022/08/10 13:25:55;;;;;;;0.70;0.60;;;;;;;23.54;42.90;101114.48;130297;1270;108831;-81
2022/08/10 13:29:02;;;;;;;0.50;0.50;;;;;;;23.57;42.38;101109.19;130247;1270;108750;-82
2022/08/10 13:32:10;;;;;;;0.60;0.50;;;;;;;23.59;43.20;101104.73;130235;1270;108547;-80
2022/08/10 13:35:17;;;;;;;0.80;0.50;;;;;;;23.65;42.93;101105.10;130344;1268;108804;-81
2022/08/10 13:38:24;;;;;;;1.00;0.50;;;;;;;23.72;43.02;101104.70;130234;1269;108652;-83
2022/08/10 13:41:35;;;;;;;0.70;0.50;;;;;;;23.73;41.31;101101.79;130251;1268;109083;-79
2022/08/10 13:44:43;;;;;;;0.60;0.50;;;;;;;23.69;41.63;101096.11;130171;1270;108777;-80
2022/08/10 13:47:52;;;;;;;0.60;0.50;;;;;;;23.64;42.05;101096.15;130361;1268;108750;-82
2022/08/10 13:51:02;;;;;;;0.50;0.50;;;;;;;23.67;41.96;101093.55;130334;1269;108731;-81
2022/08/10 13:54:10;;;;;;;1.40;0.50;;;;;;;23.67;41.97;101091.05;130367;1268;108636;-81
2022/08/10 13:57:21;;;;;;;0.90;0.50;;;;;;;23.66;41.46;101097.02;130436;1268;109261;-84
2022/08/10 14:00:35;;;;;;;0.70;0.50;;;;;;;23.59;41.81;101095.05;130373;1269;108665;-82
2022/08/10 14:03:42;;;;;;;0.60;0.40;;;;;;;23.48;41.80;101092.05;130294;1268;108915;-81
2022/08/10 14:06:54;;;;;;;0.60;0.40;;;;;;;23.47;40.41;101095.27;130390;1270;109060;-82
2022/08/10 14:10:06;;;;;;;1.10;0.60;;;;;;;23.45;40.37;101090.73;130384;1268;108265;-83
2022/08/10 14:13:15;;;;;;;1.00;0.60;;;;;;;23.46;41.38;101087.08;130466;1269;108034;-83
2022/08/10 14:16:21;;;;;;;0.70;0.60;;;;;;;23.49;40.88;101089.94;130430;1270;107768;-85
2022/08/10 14:19:36;;;;;;;0.60;0.50;;;;;;;23.55;41.76;101082.73;130267;1270;108804;-83
2022/08/10 14:22:41;;;;;;;0.70;0.60;;;;;;;23.59;41.07;101077.20;130241;1270;109332;-85
2022/08/10 14:25:53;;;;;;;0.50;0.50;;;;;;;23.59;41.04;101073.96;130179;1270;109354;-85